sensor_id;sensor_type;location;lat;lon;timestamp;pressure;altitude;pressure_sealevel;temperature;humidity
43814;BME280;29669;55.706;37.656;2022-08-07T00:03:11;100092.34;;;23.85;51.97
43814;BME280;29669;55.706;37.656;2022-08-07T00:06:42;100088.31;;;23.83;51.90
43814;BME280;29669;55.706;37.656;2022-08-07T00:10:10;100091.47;;;23.80;52.29
43814;BME280;29669;55.706;37.656;2022-08-07T00:13:36;100089.53;;;23.75;52.50
43814;BME280;29669;55.706;37.656;2022-08-07T00:17:01;100094.75;;;23.70;52.70
43814;BME280;29669;55.706;37.656;2022-08-07T00:20:23;100080.13;;;23.68;53.01
43814;BME280;29669;55.706;37.656;2022-08-07T00:23:44;100088.00;;;23.63;53.08
43814;BME280;29669;55.706;37.656;2022-08-07T00:27:05;100086.88;;;23.59;53.24
43814;BME280;29669;55.706;37.656;2022-08-07T00:30:28;100079.09;;;23.52;53.37
43814;BME280;29669;55.706;37.656;2022-08-07T00:33:49;100090.06;;;23.44;53.47
43814;BME280;29669;55.706;37.656;2022-08-07T00:37:15;100084.69;;;23.39;53.72
43814;BME280;29669;55.706;37.656;2022-08-07T00:40:53;100075.59;;;23.35;53.84
43814;BME280;29669;55.706;37.656;2022-08-07T00:44:19;100083.56;;;23.35;53.87
43814;BME280;29669;55.706;37.656;2022-08-07T00:47:40;100086.22;;;23.35;54.02
43814;BME280;29669;55.706;37.656;2022-08-07T00:51:16;100079.78;;;23.31;54.09
43814;BME280;29669;55.706;37.656;2022-08-07T00:54:50;100082.28;;;23.26;54.02
43814;BME280;29669;55.706;37.656;2022-08-07T00:58:18;100080.69;;;23.25;54.24
43814;BME280;29669;55.706;37.656;2022-08-07T01:01:38;100075.88;;;23.22;54.42
43814;BME280;29669;55.706;37.656;2022-08-07T01:05:04;100078.72;;;23.20;54.24
43814;BME280;29669;55.706;37.656;2022-08-07T01:08:25;100080.03;;;23.18;54.61
43814;BME280;29669;55.706;37.656;2022-08-07T01:11:58;100085.34;;;23.18;54.57
43814;BME280;29669;55.706;37.656;2022-08-07T01:15:36;100079.47;;;23.16;54.56
43814;BME280;29669;55.706;37.656;2022-08-07T01:19:10;100079.47;;;23.16;54.34
43814;BME280;29669;55.706;37.656;2022-08-07T01:22:31;100088.69;;;23.13;54.72
43814;BME280;29669;55.706;37.656;2022-08-07T01:26:14;100091.31;;;23.13;54.68
43814;BME280;29669;55.706;37.656;2022-08-07T01:29:35;100091.00;;;23.10;54.85
43814;BME280;29669;55.706;37.656;2022-08-07T01:32:58;100087.22;;;23.06;54.89
43814;BME280;29669;55.706;37.656;2022-08-07T01:36:18;100086.63;;;23.04;55.13
43814;BME280;29669;55.706;37.656;2022-08-07T01:39:49;100075.97;;;22.99;55.02
43814;BME280;29669;55.706;37.656;2022-08-07T01:43:28;100089.19;;;22.99;55.27
43814;BME280;29669;55.706;37.656;2022-08-07T01:46:50;100092.28;;;22.96;55.36
43814;BME280;29669;55.706;37.656;2022-08-07T01:50:34;100077.72;;;22.93;55.44
43814;BME280;29669;55.706;37.656;2022-08-07T01:53:57;100086.69;;;22.92;55.70
43814;BME280;29669;55.706;37.656;2022-08-07T01:57:46;100085.88;;;22.92;55.46
43814;BME280;29669;55.706;37.656;2022-08-07T02:01:32;100084.25;;;22.91;55.58
43814;BME280;29669;55.706;37.656;2022-08-07T02:05:13;100082.69;;;22.90;55.76
43814;BME280;29669;55.706;37.656;2022-08-07T02:08:57;100087.97;;;22.90;55.52
43814;BME280;29669;55.706;37.656;2022-08-07T02:12:41;100078.97;;;22.91;55.68
43814;BME280;29669;55.706;37.656;2022-08-07T02:16:18;100074.13;;;22.99;55.64
43814;BME280;29669;55.706;37.656;2022-08-07T02:19:45;100065.13;;;23.00;55.58
43814;BME280;29669;55.706;37.656;2022-08-07T02:23:14;100067.66;;;23.07;55.49
43814;BME280;29669;55.706;37.656;2022-08-07T02:26:41;100069.91;;;23.15;55.15
43814;BME280;29669;55.706;37.656;2022-08-07T02:30:06;100064.38;;;23.16;55.05
43814;BME280;29669;55.706;37.656;2022-08-07T02:33:28;100063.91;;;23.19;55.32
43814;BME280;29669;55.706;37.656;2022-08-07T02:37:19;100068.72;;;23.22;55.12
43814;BME280;29669;55.706;37.656;2022-08-07T02:40:50;100061.34;;;23.24;55.06
43814;BME280;29669;55.706;37.656;2022-08-07T02:44:14;100068.00;;;23.27;55.01
43814;BME280;29669;55.706;37.656;2022-08-07T02:47:44;100067.75;;;23.28;54.93
43814;BME280;29669;55.706;37.656;2022-08-07T02:51:11;100064.91;;;23.30;55.08
43814;BME280;29669;55.706;37.656;2022-08-07T02:54:54;100077.78;;;23.38;54.91
43814;BME280;29669;55.706;37.656;2022-08-07T02:58:38;100079.22;;;23.46;54.64
43814;BME280;29669;55.706;37.656;2022-08-07T03:02:03;100068.72;;;23.51;54.77
43814;BME280;29669;55.706;37.656;2022-08-07T03:05:28;100075.94;;;23.55;54.57
43814;BME280;29669;55.706;37.656;2022-08-07T03:08:48;100079.81;;;23.64;54.44
43814;BME280;29669;55.706;37.656;2022-08-07T03:12:11;100077.25;;;23.69;54.53
43814;BME280;29669;55.706;37.656;2022-08-07T03:15:42;100067.75;;;23.73;54.32
43814;BME280;29669;55.706;37.656;2022-08-07T03:19:04;100080.06;;;23.79;54.19
43814;BME280;29669;55.706;37.656;2022-08-07T03:22:27;100082.25;;;23.82;54.39
43814;BME280;29669;55.706;37.656;2022-08-07T03:25:56;100075.16;;;23.88;54.13
43814;BME280;29669;55.706;37.656;2022-08-07T03:29:42;100075.56;;;23.96;53.78
43814;BME280;29669;55.706;37.656;2022-08-07T03:33:07;100069.88;;;24.04;53.65
43814;BME280;29669;55.706;37.656;2022-08-07T03:36:39;100075.03;;;24.11;53.43
43814;BME280;29669;55.706;37.656;2022-08-07T03:39:59;100074.28;;;24.15;53.29
43814;BME280;29669;55.706;37.656;2022-08-07T03:43:22;100077.56;;;24.22;53.14
43814;BME280;29669;55.706;37.656;2022-08-07T03:46:50;100068.63;;;24.28;52.77
43814;BME280;29669;55.706;37.656;2022-08-07T03:50:21;100071.69;;;24.37;52.37
43814;BME280;29669;55.706;37.656;2022-08-07T03:53:42;100067.25;;;24.43;52.23
43814;BME280;29669;55.706;37.656;2022-08-07T03:57:28;100071.06;;;24.52;52.46
43814;BME280;29669;55.706;37.656;2022-08-07T04:01:12;100074.41;;;24.64;51.83
43814;BME280;29669;55.706;37.656;2022-08-07T04:04:33;100068.69;;;24.72;51.79
43814;BME280;29669;55.706;37.656;2022-08-07T04:07:55;100066.41;;;24.80;51.59
43814;BME280;29669;55.706;37.656;2022-08-07T04:11:17;100075.28;;;24.91;51.40
43814;BME280;29669;55.706;37.656;2022-08-07T04:14:58;100070.09;;;25.01;51.21
43814;BME280;29669;55.706;37.656;2022-08-07T04:18:19;100066.72;;;25.05;50.86
43814;BME280;29669;55.706;37.656;2022-08-07T04:22:02;100072.34;;;25.14;50.73
43814;BME280;29669;55.706;37.656;2022-08-07T04:25:25;100067.91;;;25.19;50.57
43814;BME280;29669;55.706;37.656;2022-08-07T04:28:46;100068.81;;;25.30;50.18
43814;BME280;29669;55.706;37.656;2022-08-07T04:32:08;100074.25;;;25.40;49.95
43814;BME280;29669;55.706;37.656;2022-08-07T04:35:43;100067.97;;;25.51;49.65
43814;BME280;29669;55.706;37.656;2022-08-07T04:39:04;100078.69;;;25.61;49.60
43814;BME280;29669;55.706;37.656;2022-08-07T04:42:31;100079.59;;;25.72;49.38
43814;BME280;29669;55.706;37.656;2022-08-07T04:46:09;100076.72;;;25.83;48.81
43814;BME280;29669;55.706;37.656;2022-08-07T04:49:52;100073.34;;;25.93;48.63
43814;BME280;29669;55.706;37.656;2022-08-07T04:53:48;100073.16;;;26.04;48.35
43814;BME280;29669;55.706;37.656;2022-08-07T04:57:17;100077.53;;;26.16;48.09
43814;BME280;29669;55.706;37.656;2022-08-07T05:01:13;100066.94;;;26.26;47.64
43814;BME280;29669;55.706;37.656;2022-08-07T05:04:43;100074.75;;;26.42;47.69
43814;BME280;29669;55.706;37.656;2022-08-07T05:08:19;100080.13;;;26.52;47.30
43814;BME280;29669;55.706;37.656;2022-08-07T05:12:09;100085.25;;;26.64;46.83
43814;BME280;29669;55.706;37.656;2022-08-07T05:15:38;100080.00;;;26.74;46.52
43814;BME280;29669;55.706;37.656;2022-08-07T05:19:03;100073.91;;;26.83;46.29
43814;BME280;29669;55.706;37.656;2022-08-07T05:22:40;100077.94;;;27.01;45.69
43814;BME280;29669;55.706;37.656;2022-08-07T05:26:04;100074.25;;;27.17;45.41
43814;BME280;29669;55.706;37.656;2022-08-07T05:29:36;100078.00;;;27.31;45.17
43814;BME280;29669;55.706;37.656;2022-08-07T05:33:00;100076.47;;;27.45;44.70
43814;BME280;29669;55.706;37.656;2022-08-07T05:36:24;100067.94;;;27.58;44.43
43814;BME280;29669;55.706;37.656;2022-08-07T05:39:55;100075.41;;;27.81;44.08
43814;BME280;29669;55.706;37.656;2022-08-07T05:43:24;100076.19;;;28.07;43.70
43814;BME280;29669;55.706;37.656;2022-08-07T05:47:06;100077.47;;;28.40;42.74
43814;BME280;29669;55.706;37.656;2022-08-07T05:50:47;100073.66;;;28.71;42.53
43814;BME280;29669;55.706;37.656;2022-08-07T05:54:10;100075.41;;;28.91;42.11
43814;BME280;29669;55.706;37.656;2022-08-07T05:57:50;100075.50;;;29.29;41.69
43814;BME280;29669;55.706;37.656;2022-08-07T06:01:17;100068.28;;;29.63;40.71
43814;BME280;29669;55.706;37.656;2022-08-07T06:04:47;100067.84;;;30.14;40.47
43814;BME280;29669;55.706;37.656;2022-08-07T06:08:15;100078.50;;;30.66;39.47
43814;BME280;29669;55.706;37.656;2022-08-07T06:11:38;100075.63;;;31.05;38.99
43814;BME280;29669;55.706;37.656;2022-08-07T06:14:58;100075.56;;;31.28;38.18
43814;BME280;29669;55.706;37.656;2022-08-07T06:18:22;100072.13;;;31.23;38.23
43814;BME280;29669;55.706;37.656;2022-08-07T06:21:45;100074.91;;;31.18;38.21
43814;BME280;29669;55.706;37.656;2022-08-07T06:25:40;100078.94;;;31.15;37.73
43814;BME280;29669;55.706;37.656;2022-08-07T06:29:02;100083.88;;;31.08;37.91
43814;BME280;29669;55.706;37.656;2022-08-07T06:32:23;100087.88;;;30.92;37.98
43814;BME280;29669;55.706;37.656;2022-08-07T06:35:45;100081.00;;;30.81;38.10
43814;BME280;29669;55.706;37.656;2022-08-07T06:39:23;100081.78;;;30.82;37.82
43814;BME280;29669;55.706;37.656;2022-08-07T06:43:08;100081.53;;;30.83;38.00
43814;BME280;29669;55.706;37.656;2022-08-07T06:46:39;100085.19;;;30.92;37.79
43814;BME280;29669;55.706;37.656;2022-08-07T06:50:20;100095.19;;;30.87;37.59
43814;BME280;29669;55.706;37.656;2022-08-07T06:53:39;100086.34;;;30.81;37.75
43814;BME280;29669;55.706;37.656;2022-08-07T06:57:21;100098.25;;;30.75;37.83
43814;BME280;29669;55.706;37.656;2022-08-07T07:00:57;100089.09;;;30.76;37.77
43814;BME280;29669;55.706;37.656;2022-08-07T07:04:19;100100.19;;;30.70;38.23
43814;BME280;29669;55.706;37.656;2022-08-07T07:07:48;100117.75;;;30.33;39.99
43814;BME280;29669;55.706;37.656;2022-08-07T07:11:09;100124.47;;;29.63;42.39
43814;BME280;29669;55.706;37.656;2022-08-07T07:14:57;100114.84;;;28.45;44.57
43814;BME280;29669;55.706;37.656;2022-08-07T07:21:55;100107.41;;;23.35;56.19
43814;BME280;29669;55.706;37.656;2022-08-07T07:25:38;100120.66;;;22.84;59.65
43814;BME280;29669;55.706;37.656;2022-08-07T07:29:22;100111.97;;;23.28;60.16
43814;BME280;29669;55.706;37.656;2022-08-07T07:33:07;100109.72;;;24.26;57.94
43814;BME280;29669;55.706;37.656;2022-08-07T07:36:32;100099.22;;;25.39;57.72
43814;BME280;29669;55.706;37.656;2022-08-07T07:40:03;100096.75;;;26.28;57.39
43814;BME280;29669;55.706;37.656;2022-08-07T07:43:26;100100.31;;;26.95;57.01
43814;BME280;29669;55.706;37.656;2022-08-07T07:47:09;100095.09;;;27.35;56.84
43814;BME280;29669;55.706;37.656;2022-08-07T07:50:46;100096.22;;;27.64;56.68
43814;BME280;29669;55.706;37.656;2022-08-07T07:54:08;100094.38;;;27.80;56.83
43814;BME280;29669;55.706;37.656;2022-08-07T07:57:33;100091.97;;;27.99;56.53
43814;BME280;29669;55.706;37.656;2022-08-07T08:01:00;100093.56;;;28.10;56.31
43814;BME280;29669;55.706;37.656;2022-08-07T08:04:42;100092.09;;;28.62;55.23
43814;BME280;29669;55.706;37.656;2022-08-07T08:08:00;100089.38;;;29.31;53.44
43814;BME280;29669;55.706;37.656;2022-08-07T08:11:43;100087.81;;;29.98;51.78
43814;BME280;29669;55.706;37.656;2022-08-07T08:15:10;100097.69;;;30.31;50.46
43814;BME280;29669;55.706;37.656;2022-08-07T08:18:31;100080.00;;;30.53;49.74
43814;BME280;29669;55.706;37.656;2022-08-07T08:21:57;100083.44;;;30.59;49.01
43814;BME280;29669;55.706;37.656;2022-08-07T08:25:39;100078.88;;;30.59;48.21
43814;BME280;29669;55.706;37.656;2022-08-07T08:29:18;100080.38;;;30.47;47.85
43814;BME280;29669;55.706;37.656;2022-08-07T08:33:02;100077.91;;;30.50;47.00
43814;BME280;29669;55.706;37.656;2022-08-07T08:36:30;100082.06;;;30.62;45.88
43814;BME280;29669;55.706;37.656;2022-08-07T08:40:06;100071.97;;;30.53;45.19
43814;BME280;29669;55.706;37.656;2022-08-07T08:43:41;100069.56;;;30.28;44.75
43814;BME280;29669;55.706;37.656;2022-08-07T08:47:13;100065.88;;;30.48;44.00
43814;BME280;29669;55.706;37.656;2022-08-07T08:51:01;100052.03;;;30.83;42.96
43814;BME280;29669;55.706;37.656;2022-08-07T08:55:13;100060.47;;;31.14;42.49
43814;BME280;29669;55.706;37.656;2022-08-07T09:06:20;100037.25;;;32.74;39.68
43814;BME280;29669;55.706;37.656;2022-08-07T09:13:47;100042.19;;;33.82;37.30
43814;BME280;29669;55.706;37.656;2022-08-07T09:17:23;100039.09;;;34.28;36.54
43814;BME280;29669;55.706;37.656;2022-08-07T09:25:11;100027.00;;;34.73;35.34
43814;BME280;29669;55.706;37.656;2022-08-07T09:28:42;100026.50;;;34.54;34.92
43814;BME280;29669;55.706;37.656;2022-08-07T09:32:41;100021.47;;;34.61;34.35
43814;BME280;29669;55.706;37.656;2022-08-07T09:36:18;100016.50;;;34.46;34.41
43814;BME280;29669;55.706;37.656;2022-08-07T09:40:07;100007.22;;;34.22;34.20
43814;BME280;29669;55.706;37.656;2022-08-07T09:48:18;100000.31;;;33.46;34.61
43814;BME280;29669;55.706;37.656;2022-08-07T09:52:22;100003.34;;;33.44;34.48
43814;BME280;29669;55.706;37.656;2022-08-07T10:00:08;99992.06;;;32.62;34.14
43814;BME280;29669;55.706;37.656;2022-08-07T10:04:13;99992.59;;;32.86;34.09
43814;BME280;29669;55.706;37.656;2022-08-07T10:08:25;99996.75;;;32.92;33.61
43814;BME280;29669;55.706;37.656;2022-08-07T10:11:57;99993.47;;;32.95;33.43
43814;BME280;29669;55.706;37.656;2022-08-07T10:15:48;99992.41;;;32.83;33.19
43814;BME280;29669;55.706;37.656;2022-08-07T10:19:39;99986.13;;;32.87;33.38
43814;BME280;29669;55.706;37.656;2022-08-07T10:23:32;99988.47;;;33.24;32.97
43814;BME280;29669;55.706;37.656;2022-08-07T10:35:03;99999.91;;;33.52;32.57
43814;BME280;29669;55.706;37.656;2022-08-07T10:38:42;99990.25;;;33.29;32.72
43814;BME280;29669;55.706;37.656;2022-08-07T10:45:48;99987.06;;;33.49;32.38
43814;BME280;29669;55.706;37.656;2022-08-07T10:49:34;99978.91;;;33.63;32.19
43814;BME280;29669;55.706;37.656;2022-08-07T10:56:57;99975.75;;;33.61;31.76
43814;BME280;29669;55.706;37.656;2022-08-07T11:00:57;99954.59;;;33.76;31.27
43814;BME280;29669;55.706;37.656;2022-08-07T11:04:45;99958.69;;;34.13;30.78
43814;BME280;29669;55.706;37.656;2022-08-07T11:12:27;99957.84;;;34.52;29.99
43814;BME280;29669;55.706;37.656;2022-08-07T11:15:39;99955.94;;;34.61;29.96
43814;BME280;29669;55.706;37.656;2022-08-07T11:19:13;99953.56;;;34.93;29.81
43814;BME280;29669;55.706;37.656;2022-08-07T11:22:42;99960.53;;;35.12;29.45
43814;BME280;29669;55.706;37.656;2022-08-07T11:30:05;99952.91;;;34.62;30.22
43814;BME280;29669;55.706;37.656;2022-08-07T11:41:22;99946.38;;;34.29;29.34
43814;BME280;29669;55.706;37.656;2022-08-07T11:45:33;99983.47;;;33.93;30.03
43814;BME280;29669;55.706;37.656;2022-08-07T11:53:12;100008.78;;;32.05;33.75
43814;BME280;29669;55.706;37.656;2022-08-07T11:57:04;100001.50;;;31.46;34.90
43814;BME280;29669;55.706;37.656;2022-08-07T12:01:08;99997.13;;;30.99;35.64
43814;BME280;29669;55.706;37.656;2022-08-07T12:13:13;100009.84;;;30.70;36.63
43814;BME280;29669;55.706;37.656;2022-08-07T12:17:09;100015.59;;;30.64;36.99
43814;BME280;29669;55.706;37.656;2022-08-07T12:25:24;100017.38;;;30.26;36.61
43814;BME280;29669;55.706;37.656;2022-08-07T12:29:31;100033.91;;;29.81;36.90
43814;BME280;29669;55.706;37.656;2022-08-07T12:33:03;100042.19;;;29.45;37.30
43814;BME280;29669;55.706;37.656;2022-08-07T12:36:45;100064.34;;;29.56;37.02
43814;BME280;29669;55.706;37.656;2022-08-07T12:40:07;100057.19;;;29.46;36.94
43814;BME280;29669;55.706;37.656;2022-08-07T12:43:48;100075.25;;;29.26;36.64
43814;BME280;29669;55.706;37.656;2022-08-07T12:47:43;100086.38;;;29.38;36.86
43814;BME280;29669;55.706;37.656;2022-08-07T12:51:15;100101.44;;;30.01;36.29
43814;BME280;29669;55.706;37.656;2022-08-07T12:55:01;100108.28;;;30.12;36.12
43814;BME280;29669;55.706;37.656;2022-08-07T12:58:24;100101.41;;;29.73;36.93
43814;BME280;29669;55.706;37.656;2022-08-07T13:02:16;100097.06;;;29.43;37.83
43814;BME280;29669;55.706;37.656;2022-08-07T13:09:59;100105.59;;;28.96;38.98
43814;BME280;29669;55.706;37.656;2022-08-07T13:14:18;100112.19;;;28.40;39.77
43814;BME280;29669;55.706;37.656;2022-08-07T13:17:53;100115.41;;;28.17;40.47
43814;BME280;29669;55.706;37.656;2022-08-07T13:21:40;100117.56;;;28.15;40.43
43814;BME280;29669;55.706;37.656;2022-08-07T13:25:31;100131.19;;;28.13;40.47
43814;BME280;29669;55.706;37.656;2022-08-07T13:29:00;100132.00;;;28.04;40.76
43814;BME280;29669;55.706;37.656;2022-08-07T13:32:43;100137.88;;;28.06;40.94
43814;BME280;29669;55.706;37.656;2022-08-07T13:36:18;100129.56;;;28.32;40.59
43814;BME280;29669;55.706;37.656;2022-08-07T13:39:58;100110.84;;;28.57;39.73
43814;BME280;29669;55.706;37.656;2022-08-07T13:43:41;100115.09;;;28.48;40.00
43814;BME280;29669;55.706;37.656;2022-08-07T13:47:06;100129.53;;;28.42;39.82
43814;BME280;29669;55.706;37.656;2022-08-07T13:50:31;100128.72;;;28.47;40.02
43814;BME280;29669;55.706;37.656;2022-08-07T13:54:10;100125.88;;;29.02;39.14
43814;BME280;29669;55.706;37.656;2022-08-07T13:57:34;100111.78;;;30.08;37.42
43814;BME280;29669;55.706;37.656;2022-08-07T14:01:12;100107.06;;;30.28;36.56
43814;BME280;29669;55.706;37.656;2022-08-07T14:05:02;100123.84;;;30.10;36.97
43814;BME280;29669;55.706;37.656;2022-08-07T14:08:24;100119.88;;;29.69;36.75
43814;BME280;29669;55.706;37.656;2022-08-07T14:11:55;100121.13;;;28.89;37.83
43814;BME280;29669;55.706;37.656;2022-08-07T14:15:31;100145.31;;;28.29;38.75
43814;BME280;29669;55.706;37.656;2022-08-07T14:19:00;100127.72;;;27.87;39.59
43814;BME280;29669;55.706;37.656;2022-08-07T14:22:50;100113.28;;;27.63;40.01
43814;BME280;29669;55.706;37.656;2022-08-07T14:26:25;100122.63;;;27.66;40.06
43814;BME280;29669;55.706;37.656;2022-08-07T14:30:02;100110.88;;;27.62;40.01
43814;BME280;29669;55.706;37.656;2022-08-07T14:33:39;100110.09;;;27.71;40.01
43814;BME280;29669;55.706;37.656;2022-08-07T14:37:07;100122.34;;;27.62;40.17
43814;BME280;29669;55.706;37.656;2022-08-07T14:40:42;100107.94;;;27.63;40.29
43814;BME280;29669;55.706;37.656;2022-08-07T14:44:06;100107.44;;;28.12;39.81
43814;BME280;29669;55.706;37.656;2022-08-07T14:47:31;100112.16;;;29.24;38.12
43814;BME280;29669;55.706;37.656;2022-08-07T14:50:55;100119.69;;;30.51;36.31
43814;BME280;29669;55.706;37.656;2022-08-07T14:54:25;100118.63;;;31.56;33.86
43814;BME280;29669;55.706;37.656;2022-08-07T14:57:50;100132.00;;;31.74;33.72
43814;BME280;29669;55.706;37.656;2022-08-07T15:01:11;100123.16;;;31.41;33.87
43814;BME280;29669;55.706;37.656;2022-08-07T15:04:49;100115.41;;;31.35;34.31
43814;BME280;29669;55.706;37.656;2022-08-07T15:08:30;100110.75;;;31.78;34.08
43814;BME280;29669;55.706;37.656;2022-08-07T15:12:08;100121.00;;;31.57;33.67
43814;BME280;29669;55.706;37.656;2022-08-07T15:15:42;100109.22;;;30.74;34.96
43814;BME280;29669;55.706;37.656;2022-08-07T15:19:08;100116.84;;;30.14;35.88
43814;BME280;29669;55.706;37.656;2022-08-07T15:22:52;100126.13;;;29.54;37.04
43814;BME280;29669;55.706;37.656;2022-08-07T15:26:37;100125.25;;;29.25;37.15
43814;BME280;29669;55.706;37.656;2022-08-07T15:30:06;100134.41;;;29.04;37.78
43814;BME280;29669;55.706;37.656;2022-08-07T15:33:37;100145.75;;;28.81;38.04
43814;BME280;29669;55.706;37.656;2022-08-07T15:37:01;100151.13;;;28.51;38.67
43814;BME280;29669;55.706;37.656;2022-08-07T15:40:34;100163.50;;;28.22;38.87
43814;BME280;29669;55.706;37.656;2022-08-07T15:44:20;100155.47;;;28.12;39.34
43814;BME280;29669;55.706;37.656;2022-08-07T15:47:51;100138.94;;;28.00;39.31
43814;BME280;29669;55.706;37.656;2022-08-07T15:51:19;100128.75;;;27.71;39.48
43814;BME280;29669;55.706;37.656;2022-08-07T15:55:04;100120.72;;;27.46;39.88
43814;BME280;29669;55.706;37.656;2022-08-07T15:59:02;100131.06;;;27.28;39.98
43814;BME280;29669;55.706;37.656;2022-08-07T16:02:28;100123.81;;;27.13;40.41
43814;BME280;29669;55.706;37.656;2022-08-07T16:05:53;100111.53;;;27.02;40.95
43814;BME280;29669;55.706;37.656;2022-08-07T16:13:02;100118.88;;;26.70;41.94
43814;BME280;29669;55.706;37.656;2022-08-07T16:21:35;100122.03;;;26.25;42.90
43814;BME280;29669;55.706;37.656;2022-08-07T16:25:24;100129.00;;;25.99;43.55
43814;BME280;29669;55.706;37.656;2022-08-07T16:29:20;100145.38;;;25.86;44.08
43814;BME280;29669;55.706;37.656;2022-08-07T16:33:10;100160.69;;;25.74;44.62
43814;BME280;29669;55.706;37.656;2022-08-07T16:45:09;100182.63;;;25.60;45.05
43814;BME280;29669;55.706;37.656;2022-08-07T16:53:02;100201.19;;;25.33;45.70
43814;BME280;29669;55.706;37.656;2022-08-07T17:00:11;100192.41;;;25.11;45.76
43814;BME280;29669;55.706;37.656;2022-08-07T17:07:22;100207.09;;;24.97;46.51
43814;BME280;29669;55.706;37.656;2022-08-07T17:11:23;100202.69;;;24.86;46.83
43814;BME280;29669;55.706;37.656;2022-08-07T17:26:53;100213.72;;;24.61;47.55
43814;BME280;29669;55.706;37.656;2022-08-07T17:30:29;100213.88;;;24.55;47.90
43814;BME280;29669;55.706;37.656;2022-08-07T17:34:11;100216.22;;;24.51;48.18
43814;BME280;29669;55.706;37.656;2022-08-07T17:37:50;100225.97;;;24.46;48.40
43814;BME280;29669;55.706;37.656;2022-08-07T17:45:36;100236.09;;;24.32;48.56
43814;BME280;29669;55.706;37.656;2022-08-07T17:53:15;100229.81;;;24.21;49.18
43814;BME280;29669;55.706;37.656;2022-08-07T17:57:12;100239.88;;;24.19;49.08
43814;BME280;29669;55.706;37.656;2022-08-07T18:00:56;100243.59;;;24.18;49.13
43814;BME280;29669;55.706;37.656;2022-08-07T18:08:10;100239.47;;;24.11;49.32
43814;BME280;29669;55.706;37.656;2022-08-07T18:15:42;100235.69;;;24.07;49.76
43814;BME280;29669;55.706;37.656;2022-08-07T18:19:34;100237.53;;;24.06;49.71
43814;BME280;29669;55.706;37.656;2022-08-07T18:23:06;100235.91;;;24.05;49.55
43814;BME280;29669;55.706;37.656;2022-08-07T18:27:28;100243.63;;;24.07;49.64
43814;BME280;29669;55.706;37.656;2022-08-07T18:31:07;100244.44;;;24.07;49.50
43814;BME280;29669;55.706;37.656;2022-08-07T18:43:02;100265.88;;;24.06;49.77
43814;BME280;29669;55.706;37.656;2022-08-07T18:47:05;100272.50;;;24.03;50.04
43814;BME280;29669;55.706;37.656;2022-08-07T18:59:29;100265.91;;;23.94;50.41
43814;BME280;29669;55.706;37.656;2022-08-07T19:06:46;100264.75;;;23.90;50.55
43814;BME280;29669;55.706;37.656;2022-08-07T19:10:08;100275.03;;;23.87;50.75
43814;BME280;29669;55.706;37.656;2022-08-07T19:13:59;100276.34;;;23.84;50.82
43814;BME280;29669;55.706;37.656;2022-08-07T19:17:46;100287.66;;;23.80;51.34
43814;BME280;29669;55.706;37.656;2022-08-07T19:21:15;100283.78;;;23.71;51.99
43814;BME280;29669;55.706;37.656;2022-08-07T19:24:57;100279.63;;;23.63;52.31
43814;BME280;29669;55.706;37.656;2022-08-07T19:28:50;100285.31;;;23.55;52.54
43814;BME280;29669;55.706;37.656;2022-08-07T19:32:43;100279.91;;;23.50;52.70
43814;BME280;29669;55.706;37.656;2022-08-07T19:36:10;100278.28;;;23.49;52.82
43814;BME280;29669;55.706;37.656;2022-08-07T19:39:34;100279.56;;;23.47;53.10
43814;BME280;29669;55.706;37.656;2022-08-07T19:43:17;100284.06;;;23.46;53.02
43814;BME280;29669;55.706;37.656;2022-08-07T19:47:01;100284.88;;;23.47;52.70
43814;BME280;29669;55.706;37.656;2022-08-07T19:50:33;100287.97;;;23.44;52.75
43814;BME280;29669;55.706;37.656;2022-08-07T19:54:00;100287.97;;;23.44;52.75
43814;BME280;29669;55.706;37.656;2022-08-07T19:57:43;100285.31;;;23.44;53.13
43814;BME280;29669;55.706;37.656;2022-08-07T20:01:21;100282.69;;;23.44;53.30
43814;BME280;29669;55.706;37.656;2022-08-07T20:05:04;100275.06;;;23.47;53.27
43814;BME280;29669;55.706;37.656;2022-08-07T20:08:29;100276.19;;;23.51;53.27
43814;BME280;29669;55.706;37.656;2022-08-07T20:11:57;100272.38;;;23.59;53.28
43814;BME280;29669;55.706;37.656;2022-08-07T20:15:38;100287.09;;;23.66;53.28
43814;BME280;29669;55.706;37.656;2022-08-07T20:19:01;100282.72;;;23.72;53.37
43814;BME280;29669;55.706;37.656;2022-08-07T20:22:27;100280.97;;;23.77;53.32
43814;BME280;29669;55.706;37.656;2022-08-07T20:25:51;100289.72;;;23.78;53.15
43814;BME280;29669;55.706;37.656;2022-08-07T20:29:20;100292.38;;;23.78;53.57
43814;BME280;29669;55.706;37.656;2022-08-07T20:33:05;100289.06;;;23.71;54.09
43814;BME280;29669;55.706;37.656;2022-08-07T20:36:45;100283.78;;;23.59;54.56
43814;BME280;29669;55.706;37.656;2022-08-07T20:40:08;100286.69;;;23.58;54.58
43814;BME280;29669;55.706;37.656;2022-08-07T20:43:40;100289.66;;;23.61;54.63
43814;BME280;29669;55.706;37.656;2022-08-07T20:47:05;100287.03;;;23.61;54.89
43814;BME280;29669;55.706;37.656;2022-08-07T20:50:32;100293.81;;;23.57;55.63
43814;BME280;29669;55.706;37.656;2022-08-07T20:53:53;100282.69;;;23.44;56.20
43814;BME280;29669;55.706;37.656;2022-08-07T20:57:21;100281.91;;;23.31;57.01
43814;BME280;29669;55.706;37.656;2022-08-07T21:00:51;100267.59;;;23.21;57.88
43814;BME280;29669;55.706;37.656;2022-08-07T21:04:27;100264.63;;;23.06;58.63
43814;BME280;29669;55.706;37.656;2022-08-07T21:07:53;100274.88;;;22.91;59.29